sensor_id;sensor_type;location;lat;lon;timestamp;temperature;humidity
20498;DHT22;10407;53.238;10.448;2023-05-10T00:00:08;14.70;25.40
20498;DHT22;10407;53.238;10.448;2023-05-10T00:02:36;14.60;26.20
20498;DHT22;10407;53.238;10.448;2023-05-10T00:05:04;14.60;26.40
20498;DHT22;10407;53.238;10.448;2023-05-10T00:07:32;14.70;26.80
20498;DHT22;10407;53.238;10.448;2023-05-10T00:09:59;14.70;27.00
20498;DHT22;10407;53.238;10.448;2023-05-10T00:12:27;14.60;27.40
20498;DHT22;10407;53.238;10.448;2023-05-10T00:14:54;14.50;28.30
20498;DHT22;10407;53.238;10.448;2023-05-10T00:17:22;14.60;28.00
20498;DHT22;10407;53.238;10.448;2023-05-10T00:19:49;14.70;28.10
20498;DHT22;10407;53.238;10.448;2023-05-10T00:22:17;14.60;28.30
20498;DHT22;10407;53.238;10.448;2023-05-10T00:24:44;14.50;29.00
20498;DHT22;10407;53.238;10.448;2023-05-10T00:27:12;14.50;29.80
20498;DHT22;10407;53.238;10.448;2023-05-10T00:29:39;14.40;30.00
20498;DHT22;10407;53.238;10.448;2023-05-10T00:32:07;14.40;30.90
20498;DHT22;10407;53.238;10.448;2023-05-10T00:34:34;14.50;30.80
20498;DHT22;10407;53.238;10.448;2023-05-10T00:37:02;14.40;30.90
20498;DHT22;10407;53.238;10.448;2023-05-10T00:39:30;14.40;31.50
20498;DHT22;10407;53.238;10.448;2023-05-10T00:41:57;14.20;33.50
20498;DHT22;10407;53.238;10.448;2023-05-10T00:44:26;14.40;32.90
20498;DHT22;10407;53.238;10.448;2023-05-10T00:46:54;14.40;33.10
20498;DHT22;10407;53.238;10.448;2023-05-10T00:49:21;14.20;34.40
20498;DHT22;10407;53.238;10.448;2023-05-10T00:51:49;14.10;34.50
20498;DHT22;10407;53.238;10.448;2023-05-10T00:54:17;14.30;35.20
20498;DHT22;10407;53.238;10.448;2023-05-10T00:56:45;14.30;35.70
20498;DHT22;10407;53.238;10.448;2023-05-10T00:59:15;14.30;35.60
20498;DHT22;10407;53.238;10.448;2023-05-10T01:01:47;14.20;36.40
20498;DHT22;10407;53.238;10.448;2023-05-10T01:04:15;14.20;37.10
20498;DHT22;10407;53.238;10.448;2023-05-10T01:06:42;14.20;37.70
20498;DHT22;10407;53.238;10.448;2023-05-10T01:09:10;14.20;37.50
20498;DHT22;10407;53.238;10.448;2023-05-10T01:11:38;14.00;39.30
20498;DHT22;10407;53.238;10.448;2023-05-10T01:14:07;13.90;40.90
20498;DHT22;10407;53.238;10.448;2023-05-10T01:16:37;14.00;40.80
20498;DHT22;10407;53.238;10.448;2023-05-10T01:19:17;13.90;40.90
20498;DHT22;10407;53.238;10.448;2023-05-10T01:24:58;14.00;41.40
20498;DHT22;10407;53.238;10.448;2023-05-10T01:32:55;13.90;43.40
20498;DHT22;10407;53.238;10.448;2023-05-10T01:38:17;13.80;45.50
20498;DHT22;10407;53.238;10.448;2023-05-10T01:41:09;13.80;45.80
20498;DHT22;10407;53.238;10.448;2023-05-10T01:46:20;13.90;46.30
20498;DHT22;10407;53.238;10.448;2023-05-10T01:48:51;13.80;47.30
20498;DHT22;10407;53.238;10.448;2023-05-10T01:51:23;13.80;47.50
20498;DHT22;10407;53.238;10.448;2023-05-10T01:53:54;13.80;47.90
20498;DHT22;10407;53.238;10.448;2023-05-10T01:56:24;13.80;48.30
20498;DHT22;10407;53.238;10.448;2023-05-10T01:58:53;13.70;48.70
20498;DHT22;10407;53.238;10.448;2023-05-10T02:01:22;13.70;49.80
20498;DHT22;10407;53.238;10.448;2023-05-10T02:03:53;13.70;50.30
20498;DHT22;10407;53.238;10.448;2023-05-10T02:06:22;13.60;52.00
20498;DHT22;10407;53.238;10.448;2023-05-10T02:08:52;13.60;53.20
20498;DHT22;10407;53.238;10.448;2023-05-10T02:11:21;13.60;52.10
20498;DHT22;10407;53.238;10.448;2023-05-10T02:13:50;13.60;53.60
20498;DHT22;10407;53.238;10.448;2023-05-10T02:16:20;13.50;53.80
20498;DHT22;10407;53.238;10.448;2023-05-10T02:18:49;13.70;54.10
20498;DHT22;10407;53.238;10.448;2023-05-10T02:21:19;13.60;54.90
20498;DHT22;10407;53.238;10.448;2023-05-10T02:23:49;13.50;55.30
20498;DHT22;10407;53.238;10.448;2023-05-10T02:26:18;13.40;56.20
20498;DHT22;10407;53.238;10.448;2023-05-10T02:28:48;13.40;57.50
20498;DHT22;10407;53.238;10.448;2023-05-10T02:31:17;13.40;58.00
20498;DHT22;10407;53.238;10.448;2023-05-10T02:33:46;13.50;57.90
20498;DHT22;10407;53.238;10.448;2023-05-10T02:36:15;13.30;59.10
20498;DHT22;10407;53.238;10.448;2023-05-10T02:38:44;13.20;61.50
20498;DHT22;10407;53.238;10.448;2023-05-10T02:41:13;13.00;65.20
20498;DHT22;10407;53.238;10.448;2023-05-10T02:43:42;13.10;64.00
20498;DHT22;10407;53.238;10.448;2023-05-10T02:46:10;13.20;63.50
20498;DHT22;10407;53.238;10.448;2023-05-10T02:48:38;13.30;62.20
20498;DHT22;10407;53.238;10.448;2023-05-10T02:51:07;13.30;63.00
20498;DHT22;10407;53.238;10.448;2023-05-10T02:53:37;13.30;64.00
20498;DHT22;10407;53.238;10.448;2023-05-10T02:56:25;13.10;65.80
20498;DHT22;10407;53.238;10.448;2023-05-10T02:58:54;13.30;65.40
20498;DHT22;10407;53.238;10.448;2023-05-10T03:01:22;13.20;65.60
20498;DHT22;10407;53.238;10.448;2023-05-10T03:03:50;13.30;65.30
20498;DHT22;10407;53.238;10.448;2023-05-10T03:06:18;13.20;65.40
20498;DHT22;10407;53.238;10.448;2023-05-10T03:08:46;13.30;66.20
20498;DHT22;10407;53.238;10.448;2023-05-10T03:16:24;13.20;67.50
20498;DHT22;10407;53.238;10.448;2023-05-10T03:19:12;13.10;69.20
20498;DHT22;10407;53.238;10.448;2023-05-10T03:21:38;13.10;70.20
20498;DHT22;10407;53.238;10.448;2023-05-10T03:24:08;13.10;69.60
20498;DHT22;10407;53.238;10.448;2023-05-10T03:26:39;13.00;71.70
20498;DHT22;10407;53.238;10.448;2023-05-10T03:29:08;13.00;72.20
20498;DHT22;10407;53.238;10.448;2023-05-10T03:31:35;13.10;70.80
20498;DHT22;10407;53.238;10.448;2023-05-10T03:34:03;13.10;71.30
20498;DHT22;10407;53.238;10.448;2023-05-10T03:36:30;13.10;70.90
20498;DHT22;10407;53.238;10.448;2023-05-10T03:38:58;12.90;75.00
20498;DHT22;10407;53.238;10.448;2023-05-10T03:41:26;13.00;74.20
20498;DHT22;10407;53.238;10.448;2023-05-10T03:43:54;13.30;70.60
20498;DHT22;10407;53.238;10.448;2023-05-10T03:46:21;13.00;72.50
20498;DHT22;10407;53.238;10.448;2023-05-10T03:48:49;13.10;73.00
20498;DHT22;10407;53.238;10.448;2023-05-10T03:51:16;13.20;72.20
20498;DHT22;10407;53.238;10.448;2023-05-10T03:53:44;13.00;74.80
20498;DHT22;10407;53.238;10.448;2023-05-10T03:56:11;13.20;73.10
20498;DHT22;10407;53.238;10.448;2023-05-10T03:58:39;13.10;73.70
20498;DHT22;10407;53.238;10.448;2023-05-10T04:01:06;13.20;72.40
20498;DHT22;10407;53.238;10.448;2023-05-10T04:03:34;13.40;73.40
20498;DHT22;10407;53.238;10.448;2023-05-10T04:06:02;14.20;63.50
20498;DHT22;10407;53.238;10.448;2023-05-10T04:08:30;15.00;55.40
20498;DHT22;10407;53.238;10.448;2023-05-10T04:11:12;15.60;51.20
20498;DHT22;10407;53.238;10.448;2023-05-10T04:13:40;15.70;49.30
20498;DHT22;10407;53.238;10.448;2023-05-10T04:16:09;15.50;48.30
20498;DHT22;10407;53.238;10.448;2023-05-10T04:18:37;15.50;48.00
20498;DHT22;10407;53.238;10.448;2023-05-10T04:21:04;15.60;46.70
20498;DHT22;10407;53.238;10.448;2023-05-10T04:23:31;15.50;47.20
20498;DHT22;10407;53.238;10.448;2023-05-10T04:26:00;15.90;45.50
20498;DHT22;10407;53.238;10.448;2023-05-10T04:28:28;15.80;45.80
20498;DHT22;10407;53.238;10.448;2023-05-10T04:31:03;16.30;41.30
20498;DHT22;10407;53.238;10.448;2023-05-10T04:33:31;16.60;40.80
20498;DHT22;10407;53.238;10.448;2023-05-10T04:35:59;15.40;44.00
20498;DHT22;10407;53.238;10.448;2023-05-10T04:38:27;15.30;47.20
20498;DHT22;10407;53.238;10.448;2023-05-10T04:41:03;16.10;44.10
20498;DHT22;10407;53.238;10.448;2023-05-10T04:43:24;16.60;41.40
20498;DHT22;10407;53.238;10.448;2023-05-10T04:45:51;16.10;42.60
20498;DHT22;10407;53.238;10.448;2023-05-10T04:48:19;15.60;45.00
20498;DHT22;10407;53.238;10.448;2023-05-10T04:50:47;15.60;45.10
20498;DHT22;10407;53.238;10.448;2023-05-10T04:53:14;16.10;43.40
20498;DHT22;10407;53.238;10.448;2023-05-10T04:55:42;17.10;38.60
20498;DHT22;10407;53.238;10.448;2023-05-10T04:58:09;17.60;36.40
20498;DHT22;10407;53.238;10.448;2023-05-10T05:00:37;19.10;29.50
20498;DHT22;10407;53.238;10.448;2023-05-10T05:03:04;19.30;25.50
20498;DHT22;10407;53.238;10.448;2023-05-10T05:05:32;17.60;27.60
20498;DHT22;10407;53.238;10.448;2023-05-10T05:08:00;17.10;32.60
20498;DHT22;10407;53.238;10.448;2023-05-10T05:10:27;17.60;30.00
20498;DHT22;10407;53.238;10.448;2023-05-10T05:12:55;19.50;26.80
20498;DHT22;10407;53.238;10.448;2023-05-10T05:15:22;20.60;21.90
20498;DHT22;10407;53.238;10.448;2023-05-10T05:17:50;21.10;18.30
20498;DHT22;10407;53.238;10.448;2023-05-10T05:20:18;21.50;16.00
20498;DHT22;10407;53.238;10.448;2023-05-10T05:22:45;21.30;15.40
20498;DHT22;10407;53.238;10.448;2023-05-10T05:25:13;21.60;15.60
20498;DHT22;10407;53.238;10.448;2023-05-10T05:27:41;21.20;15.10
20498;DHT22;10407;53.238;10.448;2023-05-10T05:30:09;20.90;16.30
20498;DHT22;10407;53.238;10.448;2023-05-10T05:32:37;19.00;14.40
20498;DHT22;10407;53.238;10.448;2023-05-10T05:35:05;19.90;17.10
20498;DHT22;10407;53.238;10.448;2023-05-10T05:37:33;18.20;19.30
20498;DHT22;10407;53.238;10.448;2023-05-10T05:40:00;17.50;21.20
20498;DHT22;10407;53.238;10.448;2023-05-10T05:42:28;17.20;23.80
20498;DHT22;10407;53.238;10.448;2023-05-10T05:44:56;17.90;23.60
20498;DHT22;10407;53.238;10.448;2023-05-10T05:47:23;17.90;22.80
20498;DHT22;10407;53.238;10.448;2023-05-10T05:49:51;18.10;23.70
20498;DHT22;10407;53.238;10.448;2023-05-10T05:52:18;18.70;22.60
20498;DHT22;10407;53.238;10.448;2023-05-10T05:54:47;19.00;20.60
20498;DHT22;10407;53.238;10.448;2023-05-10T05:57:15;19.00;21.40
20498;DHT22;10407;53.238;10.448;2023-05-10T05:59:42;19.30;21.30
20498;DHT22;10407;53.238;10.448;2023-05-10T06:02:10;19.00;20.10
20498;DHT22;10407;53.238;10.448;2023-05-10T06:04:38;17.90;21.80
20498;DHT22;10407;53.238;10.448;2023-05-10T06:07:05;18.00;23.60
20498;DHT22;10407;53.238;10.448;2023-05-10T06:09:33;17.60;23.30
20498;DHT22;10407;53.238;10.448;2023-05-10T06:12:00;17.10;25.70
20498;DHT22;10407;53.238;10.448;2023-05-10T06:14:28;17.20;26.10
20498;DHT22;10407;53.238;10.448;2023-05-10T06:16:56;17.40;26.90
20498;DHT22;10407;53.238;10.448;2023-05-10T06:19:23;17.60;26.60
20498;DHT22;10407;53.238;10.448;2023-05-10T06:21:51;18.00;26.90
20498;DHT22;10407;53.238;10.448;2023-05-10T06:24:18;17.80;25.60
20498;DHT22;10407;53.238;10.448;2023-05-10T06:26:46;17.40;27.40
20498;DHT22;10407;53.238;10.448;2023-05-10T06:29:15;17.90;26.20
20498;DHT22;10407;53.238;10.448;2023-05-10T06:31:43;18.40;25.20
20498;DHT22;10407;53.238;10.448;2023-05-10T06:34:10;19.10;23.40
20498;DHT22;10407;53.238;10.448;2023-05-10T06:36:38;17.50;26.60
20498;DHT22;10407;53.238;10.448;2023-05-10T06:39:06;17.00;27.60
20498;DHT22;10407;53.238;10.448;2023-05-10T06:41:34;17.10;29.40
20498;DHT22;10407;53.238;10.448;2023-05-10T06:44:01;16.60;32.10
20498;DHT22;10407;53.238;10.448;2023-05-10T06:46:30;16.20;35.20
20498;DHT22;10407;53.238;10.448;2023-05-10T06:48:57;16.50;37.30
20498;DHT22;10407;53.238;10.448;2023-05-10T06:51:25;16.30;36.50
20498;DHT22;10407;53.238;10.448;2023-05-10T06:53:52;16.40;38.90
20498;DHT22;10407;53.238;10.448;2023-05-10T06:56:20;16.00;39.20
20498;DHT22;10407;53.238;10.448;2023-05-10T06:58:48;16.30;39.50
20498;DHT22;10407;53.238;10.448;2023-05-10T07:01:16;16.30;40.70
20498;DHT22;10407;53.238;10.448;2023-05-10T07:03:43;16.80;40.80
20498;DHT22;10407;53.238;10.448;2023-05-10T07:06:11;16.70;39.30
20498;DHT22;10407;53.238;10.448;2023-05-10T07:08:38;17.20;38.90
20498;DHT22;10407;53.238;10.448;2023-05-10T07:11:07;17.20;37.30
20498;DHT22;10407;53.238;10.448;2023-05-10T07:13:34;17.00;37.50
20498;DHT22;10407;53.238;10.448;2023-05-10T07:16:02;17.30;37.70
20498;DHT22;10407;53.238;10.448;2023-05-10T07:18:30;17.30;39.30
20498;DHT22;10407;53.238;10.448;2023-05-10T07:20:58;17.90;35.10
20498;DHT22;10407;53.238;10.448;2023-05-10T07:23:25;17.40;37.20
20498;DHT22;10407;53.238;10.448;2023-05-10T07:25:53;17.90;35.60
20498;DHT22;10407;53.238;10.448;2023-05-10T07:28:21;18.00;35.50
20498;DHT22;10407;53.238;10.448;2023-05-10T07:30:49;18.00;34.50
20498;DHT22;10407;53.238;10.448;2023-05-10T07:33:16;18.20;34.00
20498;DHT22;10407;53.238;10.448;2023-05-10T07:35:44;17.90;34.60
20498;DHT22;10407;53.238;10.448;2023-05-10T07:38:11;18.20;33.70
20498;DHT22;10407;53.238;10.448;2023-05-10T07:40:39;18.00;34.30
20498;DHT22;10407;53.238;10.448;2023-05-10T07:43:07;17.80;34.60
20498;DHT22;10407;53.238;10.448;2023-05-10T07:45:34;17.90;35.20
20498;DHT22;10407;53.238;10.448;2023-05-10T07:48:02;18.20;35.60
20498;DHT22;10407;53.238;10.448;2023-05-10T07:50:30;18.10;35.70
20498;DHT22;10407;53.238;10.448;2023-05-10T07:52:58;17.90;35.90
20498;DHT22;10407;53.238;10.448;2023-05-10T07:55:25;17.70;38.40
20498;DHT22;10407;53.238;10.448;2023-05-10T07:57:53;17.60;38.30
20498;DHT22;10407;53.238;10.448;2023-05-10T08:00:20;17.80;39.00
20498;DHT22;10407;53.238;10.448;2023-05-10T08:02:48;18.00;38.40
20498;DHT22;10407;53.238;10.448;2023-05-10T08:05:16;18.10;37.30
20498;DHT22;10407;53.238;10.448;2023-05-10T08:07:43;18.30;36.70
20498;DHT22;10407;53.238;10.448;2023-05-10T08:10:11;18.20;37.70
20498;DHT22;10407;53.238;10.448;2023-05-10T08:12:39;18.40;35.60
20498;DHT22;10407;53.238;10.448;2023-05-10T08:15:07;18.40;36.10
20498;DHT22;10407;53.238;10.448;2023-05-10T08:17:35;18.40;38.60
20498;DHT22;10407;53.238;10.448;2023-05-10T08:20:03;18.70;37.30
20498;DHT22;10407;53.238;10.448;2023-05-10T08:22:30;18.60;36.40
20498;DHT22;10407;53.238;10.448;2023-05-10T08:24:58;18.50;38.50
20498;DHT22;10407;53.238;10.448;2023-05-10T08:27:26;18.60;36.10
20498;DHT22;10407;53.238;10.448;2023-05-10T08:29:53;18.50;36.30
20498;DHT22;10407;53.238;10.448;2023-05-10T08:32:21;18.60;37.00
20498;DHT22;10407;53.238;10.448;2023-05-10T08:34:49;18.50;37.70
20498;DHT22;10407;53.238;10.448;2023-05-10T08:37:16;18.30;37.80
20498;DHT22;10407;53.238;10.448;2023-05-10T08:39:44;18.00;40.30
20498;DHT22;10407;53.238;10.448;2023-05-10T08:42:15;17.90;42.20
20498;DHT22;10407;53.238;10.448;2023-05-10T08:44:43;17.80;43.50
20498;DHT22;10407;53.238;10.448;2023-05-10T08:47:13;17.80;44.30
20498;DHT22;10407;53.238;10.448;2023-05-10T08:49:42;17.60;45.80
20498;DHT22;10407;53.238;10.448;2023-05-10T08:52:12;17.50;46.90
20498;DHT22;10407;53.238;10.448;2023-05-10T08:54:40;17.40;49.00
20498;DHT22;10407;53.238;10.448;2023-05-10T08:57:08;17.30;48.20
20498;DHT22;10407;53.238;10.448;2023-05-10T08:59:36;17.50;49.30
20498;DHT22;10407;53.238;10.448;2023-05-10T09:02:06;17.60;49.60
20498;DHT22;10407;53.238;10.448;2023-05-10T09:04:33;17.70;50.00
20498;DHT22;10407;53.238;10.448;2023-05-10T09:07:01;17.60;49.50
20498;DHT22;10407;53.238;10.448;2023-05-10T09:09:29;17.30;51.20
20498;DHT22;10407;53.238;10.448;2023-05-10T09:11:57;17.10;52.00
20498;DHT22;10407;53.238;10.448;2023-05-10T09:14:25;17.00;54.20
20498;DHT22;10407;53.238;10.448;2023-05-10T09:16:53;17.10;54.50
20498;DHT22;10407;53.238;10.448;2023-05-10T09:19:21;17.10;55.40
20498;DHT22;10407;53.238;10.448;2023-05-10T09:21:49;17.20;55.40
20498;DHT22;10407;53.238;10.448;2023-05-10T09:24:17;17.20;58.30
20498;DHT22;10407;53.238;10.448;2023-05-10T09:26:48;17.20;62.00
20498;DHT22;10407;53.238;10.448;2023-05-10T09:29:15;16.90;71.70
20498;DHT22;10407;53.238;10.448;2023-05-10T09:31:48;17.30;69.00
20498;DHT22;10407;53.238;10.448;2023-05-10T09:34:19;17.40;64.40
20498;DHT22;10407;53.238;10.448;2023-05-10T09:36:58;17.60;63.80
20498;DHT22;10407;53.238;10.448;2023-05-10T09:39:35;17.60;65.00
20498;DHT22;10407;53.238;10.448;2023-05-10T09:42:09;17.50;63.00
20498;DHT22;10407;53.238;10.448;2023-05-10T09:44:34;17.40;66.80
20498;DHT22;10407;53.238;10.448;2023-05-10T09:47:03;17.60;68.20
20498;DHT22;10407;53.238;10.448;2023-05-10T09:49:31;17.50;73.60
20498;DHT22;10407;53.238;10.448;2023-05-10T09:52:04;17.30;78.50
20498;DHT22;10407;53.238;10.448;2023-05-10T09:54:33;17.10;84.70
20498;DHT22;10407;53.238;10.448;2023-05-10T09:57:01;17.10;88.30
20498;DHT22;10407;53.238;10.448;2023-05-10T09:59:29;17.10;90.10
20498;DHT22;10407;53.238;10.448;2023-05-10T10:01:59;16.80;95.00
20498;DHT22;10407;53.238;10.448;2023-05-10T10:04:27;17.10;94.00
20498;DHT22;10407;53.238;10.448;2023-05-10T10:07:04;16.90;94.90
20498;DHT22;10407;53.238;10.448;2023-05-10T10:09:33;17.20;93.20
20498;DHT22;10407;53.238;10.448;2023-05-10T10:12:02;17.10;96.80
20498;DHT22;10407;53.238;10.448;2023-05-10T10:14:31;17.10;97.30
20498;DHT22;10407;53.238;10.448;2023-05-10T10:17:00;17.10;96.80
20498;DHT22;10407;53.238;10.448;2023-05-10T10:19:28;17.10;99.30
20498;DHT22;10407;53.238;10.448;2023-05-10T10:21:57;16.50;99.90
20498;DHT22;10407;53.238;10.448;2023-05-10T10:24:25;16.10;99.90
20498;DHT22;10407;53.238;10.448;2023-05-10T10:26:55;16.10;99.90
20498;DHT22;10407;53.238;10.448;2023-05-10T10:29:33;15.80;99.90
20498;DHT22;10407;53.238;10.448;2023-05-10T10:34:33;15.70;99.90
20498;DHT22;10407;53.238;10.448;2023-05-10T10:37:05;15.50;99.90
20498;DHT22;10407;53.238;10.448;2023-05-10T10:39:33;16.00;99.90
20498;DHT22;10407;53.238;10.448;2023-05-10T10:42:03;16.10;99.90
20498;DHT22;10407;53.238;10.448;2023-05-10T10:49:49;16.10;99.90
20498;DHT22;10407;53.238;10.448;2023-05-10T10:52:23;15.70;99.90
20498;DHT22;10407;53.238;10.448;2023-05-10T10:54:58;15.70;99.90
20498;DHT22;10407;53.238;10.448;2023-05-10T10:57:22;15.60;99.90
20498;DHT22;10407;53.238;10.448;2023-05-10T10:59:50;15.50;99.90
20498;DHT22;10407;53.238;10.448;2023-05-10T11:02:42;15.70;99.90
20498;DHT22;10407;53.238;10.448;2023-05-10T11:08:15;15.60;99.90
20498;DHT22;10407;53.238;10.448;2023-05-10T11:10:39;15.60;99.90
20498;DHT22;10407;53.238;10.448;2023-05-10T11:13:08;15.90;99.90
20498;DHT22;10407;53.238;10.448;2023-05-10T11:15:39;15.90;99.90
20498;DHT22;10407;53.238;10.448;2023-05-10T11:18:20;15.40;99.90
20498;DHT22;10407;53.238;10.448;2023-05-10T11:20:55;15.40;99.90
20498;DHT22;10407;53.238;10.448;2023-05-10T11:23:22;15.70;99.90
20498;DHT22;10407;53.238;10.448;2023-05-10T11:25:49;15.90;99.90
20498;DHT22;10407;53.238;10.448;2023-05-10T11:28:18;16.10;99.90
20498;DHT22;10407;53.238;10.448;2023-05-10T11:30:46;16.10;99.90
20498;DHT22;10407;53.238;10.448;2023-05-10T11:33:18;16.20;99.90
20498;DHT22;10407;53.238;10.448;2023-05-10T11:35:46;16.40;99.90
20498;DHT22;10407;53.238;10.448;2023-05-10T11:38:14;16.50;99.90
20498;DHT22;10407;53.238;10.448;2023-05-10T11:40:42;16.20;99.90
20498;DHT22;10407;53.238;10.448;2023-05-10T11:43:10;15.90;99.90
20498;DHT22;10407;53.238;10.448;2023-05-10T11:45:37;16.30;99.90
20498;DHT22;10407;53.238;10.448;2023-05-10T11:48:05;16.70;99.90
20498;DHT22;10407;53.238;10.448;2023-05-10T11:50:33;16.70;99.90
20498;DHT22;10407;53.238;10.448;2023-05-10T11:53:01;16.80;99.90
20498;DHT22;10407;53.238;10.448;2023-05-10T11:55:28;16.60;99.90
20498;DHT22;10407;53.238;10.448;2023-05-10T11:58:00;16.50;99.90
20498;DHT22;10407;53.238;10.448;2023-05-10T12:00:28;16.70;99.90
20498;DHT22;10407;53.238;10.448;2023-05-10T12:02:56;16.90;99.90
20498;DHT22;10407;53.238;10.448;2023-05-10T12:05:24;16.80;99.90
20498;DHT22;10407;53.238;10.448;2023-05-10T12:07:52;16.20;99.90
20498;DHT22;10407;53.238;10.448;2023-05-10T12:10:25;16.20;99.90
20498;DHT22;10407;53.238;10.448;2023-05-10T12:12:52;16.70;99.90
20498;DHT22;10407;53.238;10.448;2023-05-10T12:15:24;16.90;99.90
20498;DHT22;10407;53.238;10.448;2023-05-10T12:17:52;17.10;99.90
20498;DHT22;10407;53.238;10.448;2023-05-10T12:20:23;17.30;99.90
20498;DHT22;10407;53.238;10.448;2023-05-10T12:22:53;17.20;99.90
20498;DHT22;10407;53.238;10.448;2023-05-10T12:25:23;17.30;99.90
20498;DHT22;10407;53.238;10.448;2023-05-10T12:27:53;17.30;99.90
20498;DHT22;10407;53.238;10.448;2023-05-10T12:30:28;16.90;99.90
20498;DHT22;10407;53.238;10.448;2023-05-10T12:32:53;16.80;99.90
20498;DHT22;10407;53.238;10.448;2023-05-10T12:35:21;17.10;99.90
20498;DHT22;10407;53.238;10.448;2023-05-10T12:37:53;17.20;99.90
20498;DHT22;10407;53.238;10.448;2023-05-10T12:40:20;17.30;99.90
20498;DHT22;10407;53.238;10.448;2023-05-10T12:42:48;17.30;99.90
20498;DHT22;10407;53.238;10.448;2023-05-10T12:45:17;16.60;99.90
20498;DHT22;10407;53.238;10.448;2023-05-10T12:47:45;16.50;99.90
20498;DHT22;10407;53.238;10.448;2023-05-10T12:50:12;16.90;99.90
20498;DHT22;10407;53.238;10.448;2023-05-10T12:52:40;16.80;99.90
20498;DHT22;10407;53.238;10.448;2023-05-10T12:55:08;17.10;99.90
20498;DHT22;10407;53.238;10.448;2023-05-10T12:57:36;17.30;99.90
20498;DHT22;10407;53.238;10.448;2023-05-10T13:00:04;17.40;99.90
20498;DHT22;10407;53.238;10.448;2023-05-10T13:02:32;17.50;99.90
20498;DHT22;10407;53.238;10.448;2023-05-10T13:05:00;17.50;99.90
20498;DHT22;10407;53.238;10.448;2023-05-10T13:07:27;17.70;99.90
20498;DHT22;10407;53.238;10.448;2023-05-10T13:09:55;17.90;99.90
20498;DHT22;10407;53.238;10.448;2023-05-10T13:12:22;18.00;99.90
20498;DHT22;10407;53.238;10.448;2023-05-10T13:14:50;18.00;99.90
20498;DHT22;10407;53.238;10.448;2023-05-10T13:17:17;17.90;99.90
20498;DHT22;10407;53.238;10.448;2023-05-10T13:19:45;17.80;99.90
20498;DHT22;10407;53.238;10.448;2023-05-10T13:22:12;17.90;99.90
20498;DHT22;10407;53.238;10.448;2023-05-10T13:24:40;17.90;99.90
20498;DHT22;10407;53.238;10.448;2023-05-10T13:27:07;18.10;99.90
20498;DHT22;10407;53.238;10.448;2023-05-10T13:29:35;18.20;99.90
20498;DHT22;10407;53.238;10.448;2023-05-10T13:32:02;18.10;99.90
20498;DHT22;10407;53.238;10.448;2023-05-10T13:34:30;18.20;99.90
20498;DHT22;10407;53.238;10.448;2023-05-10T13:36:58;18.00;99.90
20498;DHT22;10407;53.238;10.448;2023-05-10T13:39:25;18.00;99.90
20498;DHT22;10407;53.238;10.448;2023-05-10T13:41:53;18.10;99.90
20498;DHT22;10407;53.238;10.448;2023-05-10T13:44:21;17.90;99.90
20498;DHT22;10407;53.238;10.448;2023-05-10T13:46:48;17.90;99.90
20498;DHT22;10407;53.238;10.448;2023-05-10T13:49:16;18.00;99.90
20498;DHT22;10407;53.238;10.448;2023-05-10T13:51:44;18.10;99.90
20498;DHT22;10407;53.238;10.448;2023-05-10T13:54:11;18.00;99.90
20498;DHT22;10407;53.238;10.448;2023-05-10T13:56:39;17.90;99.90
20498;DHT22;10407;53.238;10.448;2023-05-10T13:59:07;18.00;99.90
20498;DHT22;10407;53.238;10.448;2023-05-10T14:01:34;18.00;99.90
20498;DHT22;10407;53.238;10.448;2023-05-10T14:04:02;18.00;99.90
20498;DHT22;10407;53.238;10.448;2023-05-10T14:06:30;18.40;99.90
20498;DHT22;10407;53.238;10.448;2023-05-10T14:08:57;18.40;99.90
20498;DHT22;10407;53.238;10.448;2023-05-10T14:11:25;18.00;99.90
20498;DHT22;10407;53.238;10.448;2023-05-10T14:13:52;18.20;99.90
20498;DHT22;10407;53.238;10.448;2023-05-10T14:16:20;18.60;99.90
20498;DHT22;10407;53.238;10.448;2023-05-10T14:18:48;18.80;99.90
20498;DHT22;10407;53.238;10.448;2023-05-10T14:21:15;18.50;99.90
20498;DHT22;10407;53.238;10.448;2023-05-10T14:23:43;18.40;99.90
20498;DHT22;10407;53.238;10.448;2023-05-10T14:26:10;18.60;99.90
20498;DHT22;10407;53.238;10.448;2023-05-10T14:28:38;18.60;99.90
20498;DHT22;10407;53.238;10.448;2023-05-10T14:31:06;18.30;99.90
20498;DHT22;10407;53.238;10.448;2023-05-10T14:33:33;18.40;99.90
20498;DHT22;10407;53.238;10.448;2023-05-10T14:36:01;18.60;99.90
20498;DHT22;10407;53.238;10.448;2023-05-10T14:38:30;18.60;99.90
20498;DHT22;10407;53.238;10.448;2023-05-10T14:40:57;18.50;99.90
20498;DHT22;10407;53.238;10.448;2023-05-10T14:43:25;18.40;99.90
20498;DHT22;10407;53.238;10.448;2023-05-10T14:45:54;18.40;99.90
20498;DHT22;10407;53.238;10.448;2023-05-10T14:48:21;18.60;99.90
20498;DHT22;10407;53.238;10.448;2023-05-10T14:50:49;18.40;99.90
20498;DHT22;10407;53.238;10.448;2023-05-10T14:53:16;18.70;99.90
20498;DHT22;10407;53.238;10.448;2023-05-10T14:55:44;18.80;99.90
20498;DHT22;10407;53.238;10.448;2023-05-10T14:58:12;18.90;99.90
20498;DHT22;10407;53.238;10.448;2023-05-10T15:00:40;18.60;99.90
20498;DHT22;10407;53.238;10.448;2023-05-10T15:03:08;18.60;99.90
20498;DHT22;10407;53.238;10.448;2023-05-10T15:05:35;18.70;99.90
20498;DHT22;10407;53.238;10.448;2023-05-10T15:08:04;18.70;99.90
20498;DHT22;10407;53.238;10.448;2023-05-10T15:10:36;18.30;99.90
20498;DHT22;10407;53.238;10.448;2023-05-10T15:13:04;18.50;99.90
20498;DHT22;10407;53.238;10.448;2023-05-10T15:15:31;18.40;99.90
20498;DHT22;10407;53.238;10.448;2023-05-10T15:17:59;18.50;99.90
20498;DHT22;10407;53.238;10.448;2023-05-10T15:20:26;18.40;99.90
20498;DHT22;10407;53.238;10.448;2023-05-10T15:22:54;18.40;99.90
20498;DHT22;10407;53.238;10.448;2023-05-10T15:25:22;18.50;99.90
20498;DHT22;10407;53.238;10.448;2023-05-10T15:27:50;18.60;99.90
20498;DHT22;10407;53.238;10.448;2023-05-10T15:30:17;18.60;99.90
20498;DHT22;10407;53.238;10.448;2023-05-10T15:32:45;18.50;99.90
20498;DHT22;10407;53.238;10.448;2023-05-10T15:35:13;18.50;99.90
20498;DHT22;10407;53.238;10.448;2023-05-10T15:37:41;18.60;99.90
20498;DHT22;10407;53.238;10.448;2023-05-10T15:40:09;18.60;99.90
20498;DHT22;10407;53.238;10.448;2023-05-10T15:42:36;18.60;99.90
20498;DHT22;10407;53.238;10.448;2023-05-10T15:45:05;18.30;99.90
20498;DHT22;10407;53.238;10.448;2023-05-10T15:47:32;18.20;99.90
20498;DHT22;10407;53.238;10.448;2023-05-10T15:50:00;18.20;99.90
20498;DHT22;10407;53.238;10.448;2023-05-10T15:52:27;18.30;99.90